Time;durP1;ratioP1;P1;durP2;ratioP2;P2;SDS_P1;SDS_P2;PMS_P1;PMS_P2;Temp;Humidity;BMP_temperature;BMP_pressure;BME280_temperature;BME280_humidity;BME280_pressure;Samples;Min_cycle;Max_cycle;Signal;HPM_P1;HPM_P2
2022/09/28 00:00:18;;;;;;;;;;;;;;;15.30;56.49;98559.97;4268747;33;19981;-88
2022/09/28 00:02:46;;;;;;;;;;;;;;;15.31;56.85;98561.69;4262061;33;19989;-88
2022/09/28 00:05:13;;;;;;;;;;;;;;;15.39;56.69;98552.84;4255540;33;20042;-88
2022/09/28 00:07:40;;;;;;;;;;;;;;;15.15;57.24;98544.69;4271178;33;19990;-87
2022/09/28 00:10:08;;;;;;;;;;;;;;;15.06;57.73;98544.91;4259164;33;20000;-88
2022/09/28 00:12:34;;;;;;;;;;;;;;;15.09;57.65;98542.22;4257640;33;20051;-88
2022/09/28 00:15:02;;;;;;;;;;;;;;;15.05;57.74;98544.06;4255108;33;19992;-87
2022/09/28 00:17:29;;;;;;;;;;;;;;;14.94;57.85;98534.78;4239807;33;20325;-88
2022/09/28 00:19:56;;;;;;;;;;;;;;;15.05;57.77;98522.34;4248176;33;19989;-88
2022/09/28 00:22:23;;;;;;;;;;;;;;;15.03;57.89;98534.56;4240472;33;20034;-88
2022/09/28 00:24:50;;;;;;;;;;;;;;;14.77;58.58;98538.63;3664423;33;10006686;-87
2022/09/28 00:27:17;;;;;;;;;;;;;;;14.53;59.55;98544.34;4258735;33;19982;-87
2022/09/28 00:29:44;;;;;;;;;;;;;;;14.79;57.97;98541.19;4240421;33;19974;-87
2022/09/28 00:32:12;;;;;;;;;;;;;;;14.63;58.76;98541.50;4258734;33;20308;-88
2022/09/28 00:34:42;;;;;;;;;;;;;;;14.70;59.02;98542.22;3681746;33;10008543;-87
2022/09/28 00:37:08;;;;;;;;;;;;;;;14.72;58.38;98540.47;4264574;33;20344;-87
2022/09/28 00:39:37;;;;;;;;;;;;;;;14.88;57.90;98540.97;4263519;33;19985;-88
2022/09/28 00:42:09;;;;;;;;;;;;;;;14.89;57.67;98543.53;4257170;33;20373;-86
2022/09/28 00:44:45;;;;;;;;;;;;;;;14.68;58.48;98538.81;4273220;33;19990;-88
2022/09/28 00:47:14;;;;;;;;;;;;;;;14.67;58.49;98541.44;4278906;33;20389;-88
2022/09/28 00:49:47;;;;;;;;;;;;;;;14.76;58.14;98547.31;4264736;33;20709;-88
2022/09/28 00:52:15;;;;;;;;;;;;;;;14.76;58.03;98552.53;4268343;33;20004;-88
2022/09/28 00:54:42;;;;;;;;;;;;;;;14.76;58.03;98536.88;4253302;33;19994;-86
2022/09/28 00:57:09;;;;;;;;;;;;;;;14.70;56.89;98534.41;4265103;33;20050;-87
2022/09/28 00:59:36;;;;;;;;;;;;;;;14.66;58.36;98543.19;4262023;33;19986;-87
2022/09/28 01:02:03;;;;;;;;;;;;;;;14.78;58.13;98550.75;4264783;33;19985;-88
2022/09/28 01:04:30;;;;;;;;;;;;;;;14.82;57.42;98547.19;4264964;33;20014;-87
2022/09/28 01:06:58;;;;;;;;;;;;;;;14.82;57.07;98547.19;4259705;33;20529;-87
2022/09/28 01:09:25;;;;;;;;;;;;;;;14.72;58.35;98545.66;4256418;33;20356;-87
2022/09/28 01:11:51;;;;;;;;;;;;;;;14.45;59.03;98546.19;4269036;33;20033;-88
2022/09/28 01:14:19;;;;;;;;;;;;;;;14.71;57.06;98543.97;4257295;33;20004;-88
2022/09/28 01:16:46;;;;;;;;;;;;;;;14.65;57.91;98544.09;4264611;33;19986;-87
2022/09/28 01:19:14;;;;;;;;;;;;;;;14.97;54.99;98550.34;4254852;33;19978;-87
2022/09/28 01:21:50;;;;;;;;;;;;;;;14.73;55.85;98552.59;4254214;33;19989;-87
2022/09/28 01:24:36;;;;;;;;;;;;;;;14.77;57.15;98554.25;4254849;33;20042;-88
2022/09/28 01:27:04;;;;;;;;;;;;;;;14.83;56.45;98559.31;4254553;33;19994;-88
2022/09/28 01:29:37;;;;;;;;;;;;;;;14.86;56.20;98554.03;4272092;33;20004;-87
2022/09/28 01:32:23;;;;;;;;;;;;;;;15.03;54.79;98555.44;4254147;33;20034;-87
2022/09/28 01:34:53;;;;;;;;;;;;;;;14.94;56.10;98555.63;4259114;33;20453;-88
2022/09/28 01:37:20;;;;;;;;;;;;;;;15.14;54.96;98556.03;4256883;33;20673;-87
2022/09/28 01:39:47;;;;;;;;;;;;;;;14.96;55.59;98553.81;4263472;33;19977;-87
2022/09/28 01:42:19;;;;;;;;;;;;;;;15.07;55.52;98567.50;4269962;33;20040;-88
2022/09/28 01:44:46;;;;;;;;;;;;;;;15.01;54.49;98563.25;4268970;33;20037;-88
2022/09/28 01:47:14;;;;;;;;;;;;;;;14.99;54.69;98561.56;4274062;33;19997;-88
2022/09/28 01:49:43;;;;;;;;;;;;;;;14.95;55.94;98572.97;4264577;33;19996;-87
2022/09/28 01:52:11;;;;;;;;;;;;;;;15.06;54.89;98570.97;4271490;33;19989;-85
2022/09/28 01:54:38;;;;;;;;;;;;;;;14.99;54.59;98574.59;4267945;33;20020;-87
2022/09/28 01:57:08;;;;;;;;;;;;;;;15.10;52.68;98572.62;3678159;33;10036014;-86
2022/09/28 01:59:35;;;;;;;;;;;;;;;14.72;55.91;98566.50;4264669;33;20253;-88
2022/09/28 02:02:03;;;;;;;;;;;;;;;14.89;55.27;98564.38;4265047;33;20013;-87
2022/09/28 02:04:34;;;;;;;;;;;;;;;14.80;55.91;98575.00;4267465;33;20313;-87
2022/09/28 02:07:01;;;;;;;;;;;;;;;15.07;54.77;98563.13;4269323;33;20012;-87
2022/09/28 02:09:34;;;;;;;;;;;;;;;14.85;56.66;98562.75;4264840;33;20064;-87
2022/09/28 02:12:04;;;;;;;;;;;;;;;14.74;56.57;98569.94;4268974;33;20044;-88
2022/09/28 02:14:31;;;;;;;;;;;;;;;14.90;56.47;98570.47;4230390;33;20376;-88
2022/09/28 02:17:00;;;;;;;;;;;;;;;14.84;56.32;98574.06;4265841;33;20000;-88
2022/09/28 02:19:28;;;;;;;;;;;;;;;14.67;57.15;98568.34;4275743;33;19981;-88
2022/09/28 02:21:58;;;;;;;;;;;;;;;14.76;55.44;98568.16;4273464;33;20586;-88
2022/09/28 02:24:31;;;;;;;;;;;;;;;14.97;53.29;98571.19;4256459;33;20550;-86
2022/09/28 02:26:59;;;;;;;;;;;;;;;14.87;54.35;98560.97;4258045;33;20313;-88
2022/09/28 02:29:29;;;;;;;;;;;;;;;14.95;55.65;98563.41;4278464;33;20013;-88
2022/09/28 02:31:56;;;;;;;;;;;;;;;14.94;55.83;98568.66;4268516;33;20470;-88
2022/09/28 02:34:23;;;;;;;;;;;;;;;14.86;56.06;98564.44;4263249;33;20033;-87
2022/09/28 02:36:50;;;;;;;;;;;;;;;14.97;55.54;98571.19;4266131;33;19989;-87
2022/09/28 02:39:17;;;;;;;;;;;;;;;14.97;53.72;98571.19;4261283;33;19985;-87
2022/09/28 02:41:59;;;;;;;;;;;;;;;15.10;53.50;98575.25;4257379;33;20032;-88
2022/09/28 02:44:26;;;;;;;;;;;;;;;15.10;53.57;98572.62;4266543;33;20041;-87
2022/09/28 02:47:03;;;;;;;;;;;;;;;14.88;55.38;98567.87;4160978;33;20496;-87
2022/09/28 02:49:38;;;;;;;;;;;;;;;14.91;54.74;98566.13;4252062;33;19994;-88
2022/09/28 02:52:05;;;;;;;;;;;;;;;15.01;54.60;98576.28;4246590;33;20415;-87
2022/09/28 02:54:42;;;;;;;;;;;;;;;14.95;55.62;98578.19;4246142;33;20010;-88
2022/09/28 02:57:44;;;;;;;;;;;;;;;15.05;55.34;98584.91;4264796;33;20024;-87
2022/09/28 03:00:18;;;;;;;;;;;;;;;14.95;56.31;98583.37;4290244;33;20052;-88
2022/09/28 03:02:58;;;;;;;;;;;;;;;15.03;56.25;98592.75;4261488;33;20374;-86
2022/09/28 03:05:31;;;;;;;;;;;;;;;14.87;56.75;98597.44;4263938;33;20053;-86
2022/09/28 03:07:58;;;;;;;;;;;;;;;14.79;56.82;98608.91;4263147;33;19993;-86
2022/09/28 03:10:36;;;;;;;;;;;;;;;14.76;56.62;98607.22;4274962;33;19989;-87
2022/09/28 03:13:03;;;;;;;;;;;;;;;14.61;55.96;98617.94;4278142;33;20963;-87
2022/09/28 03:15:31;;;;;;;;;;;;;;;14.70;55.95;98622.97;4275864;33;20044;-87
2022/09/28 03:17:58;;;;;;;;;;;;;;;14.73;55.01;98609.88;4260844;33;20039;-88
2022/09/28 03:20:25;;;;;;;;;;;;;;;14.92;55.56;98612.13;4252732;33;20000;-87
2022/09/28 03:22:52;;;;;;;;;;;;;;;14.80;56.00;98619.28;4265861;33;19997;-87
2022/09/28 03:25:39;;;;;;;;;;;;;;;14.80;56.27;98624.50;4256710;33;20050;-88
2022/09/28 03:28:07;;;;;;;;;;;;;;;14.86;57.38;98624.38;4254616;33;19977;-88
2022/09/28 03:30:34;;;;;;;;;;;;;;;14.66;58.34;98629.16;4259056;33;19990;-87
2022/09/28 03:33:02;;;;;;;;;;;;;;;14.73;57.77;98620.31;4253168;33;20019;-87
2022/09/28 03:35:29;;;;;;;;;;;;;;;14.75;58.06;98613.34;4252666;33;19981;-88
2022/09/28 03:37:56;;;;;;;;;;;;;;;14.71;58.56;98616.91;4173115;33;20366;-88
2022/09/28 03:40:23;;;;;;;;;;;;;;;14.70;58.10;98620.38;4272917;33;20056;-88
2022/09/28 03:42:51;;;;;;;;;;;;;;;14.60;58.38;98618.84;4269349;33;20383;-88
2022/09/28 03:45:18;;;;;;;;;;;;;;;14.43;59.50;98617.41;4264351;33;20016;-88
2022/09/28 03:47:47;;;;;;;;;;;;;;;14.61;58.76;98630.97;4257274;33;20017;-88
2022/09/28 03:50:17;;;;;;;;;;;;;;;14.71;56.91;98627.31;4252562;33;19997;-87
2022/09/28 03:52:43;;;;;;;;;;;;;;;14.73;57.37;98635.09;4262518;33;20373;-88
2022/09/28 03:55:10;;;;;;;;;;;;;;;14.34;58.83;98627.97;4263700;33;19986;-87
2022/09/28 03:57:37;;;;;;;;;;;;;;;14.57;58.25;98629.31;4254696;33;19981;-88
2022/09/28 04:00:04;;;;;;;;;;;;;;;14.64;58.01;98628.31;4257250;33;20364;-87
2022/09/28 04:02:39;;;;;;;;;;;;;;;14.64;58.14;98625.69;4259311;33;20045;-88
2022/09/28 04:05:06;;;;;;;;;;;;;;;14.50;58.59;98619.88;4254766;33;20004;-87
2022/09/28 04:07:33;;;;;;;;;;;;;;;14.61;57.93;98616.22;4254760;33;20408;-88
2022/09/28 04:09:59;;;;;;;;;;;;;;;14.60;58.29;98624.91;4260429;33;20005;-87
2022/09/28 04:12:26;;;;;;;;;;;;;;;14.57;58.28;98608.47;4256669;33;19985;-87
2022/09/28 04:14:53;;;;;;;;;;;;;;;14.49;58.92;98618.19;4100803;33;20016;-87
2022/09/28 04:17:20;;;;;;;;;;;;;;;14.50;58.96;98622.50;4257345;33;20057;-88
2022/09/28 04:19:47;;;;;;;;;;;;;;;14.46;58.56;98620.84;4240514;33;20045;-88
2022/09/28 04:22:15;;;;;;;;;;;;;;;14.53;58.02;98617.25;4243073;33;19996;-87
2022/09/28 04:24:42;;;;;;;;;;;;;;;14.51;58.30;98612.06;4245909;33;20297;-87
2022/09/28 04:29:55;;;;;;;;;;;;;;;14.11;59.21;98611.94;4242813;33;20298;-87
2022/09/28 04:32:22;;;;;;;;;;;;;;;14.37;57.86;98617.50;4245358;33;20005;-87
2022/09/28 04:34:50;;;;;;;;;;;;;;;14.32;58.52;98611.53;4250722;33;19990;-89
2022/09/28 04:37:17;;;;;;;;;;;;;;;14.48;57.79;98608.63;4245969;33;20005;-89
2022/09/28 04:39:44;;;;;;;;;;;;;;;14.31;57.87;98614.16;4241777;33;20333;-86
2022/09/28 04:42:15;;;;;;;;;;;;;;;14.13;58.30;98617.97;4227851;33;20020;-85
2022/09/28 04:44:42;;;;;;;;;;;;;;;14.35;57.16;98624.47;4240312;33;19998;-85
2022/09/28 04:47:09;;;;;;;;;;;;;;;14.31;57.47;98622.84;4250883;33;19997;-84
2022/09/28 04:49:37;;;;;;;;;;;;;;;14.17;58.05;98624.84;4239522;33;20034;-85
2022/09/28 04:52:04;;;;;;;;;;;;;;;14.31;57.73;98620.22;4246868;33;20015;-85
2022/09/28 04:54:32;;;;;;;;;;;;;;;14.35;57.27;98608.88;4269920;33;20024;-85
2022/09/28 04:57:00;;;;;;;;;;;;;;;14.20;57.53;98603.97;4264101;33;20012;-85
2022/09/28 04:59:27;;;;;;;;;;;;;;;14.14;57.56;98602.31;4247931;33;20036;-85
2022/09/28 05:01:54;;;;;;;;;;;;;;;14.22;57.13;98609.13;4263057;33;19997;-85
2022/09/28 05:04:22;;;;;;;;;;;;;;;13.93;57.80;98616.56;4278316;33;20056;-85
2022/09/28 05:06:52;;;;;;;;;;;;;;;13.93;57.74;98615.72;4273139;33;20004;-84
2022/09/28 05:09:19;;;;;;;;;;;;;;;13.76;57.74;98617.75;4255943;33;20009;-84
2022/09/28 05:11:51;;;;;;;;;;;;;;;13.62;58.66;98620.56;4255314;33;20029;-87
2022/09/28 05:14:20;;;;;;;;;;;;;;;13.77;57.99;98628.13;4248101;33;20848;-84
2022/09/28 05:16:47;;;;;;;;;;;;;;;13.79;57.69;98628.09;4253044;33;20012;-85
2022/09/28 05:19:16;;;;;;;;;;;;;;;13.81;57.54;98627.16;4254326;33;20029;-85
2022/09/28 05:21:43;;;;;;;;;;;;;;;13.95;57.39;98625.22;4258000;33;19981;-84
2022/09/28 05:24:10;;;;;;;;;;;;;;;13.83;57.79;98630.63;4273024;33;19989;-83
2022/09/28 05:26:38;;;;;;;;;;;;;;;13.82;57.66;98633.25;4263679;33;19989;-84
2022/09/28 05:29:05;;;;;;;;;;;;;;;13.70;58.24;98635.16;4259822;33;20004;-82
2022/09/28 05:31:33;;;;;;;;;;;;;;;13.77;57.64;98633.31;4258145;33;20393;-84
2022/09/28 05:34:01;;;;;;;;;;;;;;;13.96;57.28;98639.94;4253025;33;20012;-84
2022/09/28 05:36:29;;;;;;;;;;;;;;;13.89;57.63;98635.72;4264764;33;20023;-85
2022/09/28 05:38:57;;;;;;;;;;;;;;;13.94;57.74;98633.91;4259212;33;20005;-87
2022/09/28 05:41:24;;;;;;;;;;;;;;;14.03;57.29;98632.88;4252379;33;19986;-85
2022/09/28 05:43:51;;;;;;;;;;;;;;;14.06;57.04;98637.16;4258617;33;19993;-87
2022/09/28 05:46:20;;;;;;;;;;;;;;;14.16;57.07;98633.50;4264943;33;19993;-84
2022/09/28 05:48:47;;;;;;;;;;;;;;;14.00;58.15;98632.06;4259905;33;19985;-83
2022/09/28 05:51:14;;;;;;;;;;;;;;;13.95;58.51;98627.81;4254124;33;20313;-85
2022/09/28 05:53:41;;;;;;;;;;;;;;;13.99;58.61;98630.38;4261554;33;20003;-83
2022/09/28 05:56:10;;;;;;;;;;;;;;;14.17;57.00;98619.63;4262803;33;20007;-86
2022/09/28 05:58:41;;;;;;;;;;;;;;;14.12;58.13;98621.44;4263975;33;20004;-87
2022/09/28 06:01:09;;;;;;;;;;;;;;;14.24;58.31;98621.25;4268499;33;19977;-84
2022/09/28 06:03:36;;;;;;;;;;;;;;;14.39;57.91;98631.38;4259213;33;19981;-83
2022/09/28 06:06:03;;;;;;;;;;;;;;;14.56;56.63;98625.00;4266248;33;19992;-84
2022/09/28 06:08:31;;;;;;;;;;;;;;;14.65;56.82;98628.28;4273553;33;20021;-85
2022/09/28 06:11:00;;;;;;;;;;;;;;;14.55;56.54;98636.28;4146780;33;20338;-84
2022/09/28 06:13:27;;;;;;;;;;;;;;;14.69;55.57;98634.28;4278132;33;20036;-84
2022/09/28 06:15:54;;;;;;;;;;;;;;;14.77;55.60;98631.53;4265146;33;20316;-86
2022/09/28 06:18:22;;;;;;;;;;;;;;;14.85;55.68;98630.47;4254664;33;20005;-85
2022/09/28 06:20:49;;;;;;;;;;;;;;;14.85;55.97;98629.63;4267918;33;19977;-84
2022/09/28 06:23:18;;;;;;;;;;;;;;;14.33;57.34;98630.63;4268182;33;19978;-85
2022/09/28 06:25:45;;;;;;;;;;;;;;;14.73;56.26;98628.13;4268215;33;19989;-85
2022/09/28 06:28:15;;;;;;;;;;;;;;;14.49;54.71;98632.06;4265892;33;20349;-85
2022/09/28 06:30:42;;;;;;;;;;;;;;;14.67;55.20;98636.06;4265817;33;20402;-84
2022/09/28 06:33:11;;;;;;;;;;;;;;;14.71;56.12;98640.34;3828125;33;10011656;-82
2022/09/28 06:35:39;;;;;;;;;;;;;;;14.95;55.34;98640.72;4254475;33;19990;-84
2022/09/28 06:38:06;;;;;;;;;;;;;;;14.97;54.76;98639.81;4255252;33;20053;-85
2022/09/28 06:40:33;;;;;;;;;;;;;;;15.08;53.79;98637.81;4258828;33;20097;-84
2022/09/28 06:43:01;;;;;;;;;;;;;;;15.23;52.81;98635.78;4253382;33;20338;-84
2022/09/28 06:45:28;;;;;;;;;;;;;;;15.12;55.66;98643.81;4251841;33;19974;-83
2022/09/28 06:47:59;;;;;;;;;;;;;;;15.33;53.10;98632.06;4267041;33;20007;-83
2022/09/28 06:50:31;;;;;;;;;;;;;;;15.46;53.28;98637.84;4267499;33;20053;-83
2022/09/28 06:53:00;;;;;;;;;;;;;;;15.66;51.36;98638.22;4245176;33;19996;-85
2022/09/28 06:55:28;;;;;;;;;;;;;;;15.67;52.11;98642.63;4254513;33;19986;-83
2022/09/28 06:58:01;;;;;;;;;;;;;;;15.89;50.78;98637.72;4240099;33;19989;-86
2022/09/28 07:00:30;;;;;;;;;;;;;;;16.26;49.08;98632.41;4240953;33;20004;-83
2022/09/28 07:02:56;;;;;;;;;;;;;;;16.69;47.37;98635.63;4261388;33;20017;-83
2022/09/28 07:05:28;;;;;;;;;;;;;;;16.85;48.95;98636.09;4251800;33;20041;-83
2022/09/28 07:07:55;;;;;;;;;;;;;;;17.31;47.77;98634.72;4252975;33;19999;-83
2022/09/28 07:10:23;;;;;;;;;;;;;;;17.40;46.73;98640.50;4252894;33;19985;-84
2022/09/28 07:12:51;;;;;;;;;;;;;;;17.82;46.58;98636.59;4254462;33;20030;-84
2022/09/28 07:15:19;;;;;;;;;;;;;;;18.33;45.37;98643.63;4254671;33;19985;-84
2022/09/28 07:17:46;;;;;;;;;;;;;;;18.46;43.61;98638.81;4254682;33;19990;-82
2022/09/28 07:20:27;;;;;;;;;;;;;;;18.73;44.05;98629.13;4265260;33;19985;-84
2022/09/28 07:22:58;;;;;;;;;;;;;;;18.82;42.38;98623.53;4261260;33;20324;-84
2022/09/28 07:25:46;;;;;;;;;;;;;;;19.21;45.04;98633.47;4263183;33;20000;-83
2022/09/28 07:28:17;;;;;;;;;;;;;;;19.34;43.16;98629.44;4271975;33;20070;-85
2022/09/28 07:30:45;;;;;;;;;;;;;;;19.63;42.82;98624.81;4254631;33;20006;-85
2022/09/28 07:33:13;;;;;;;;;;;;;;;19.56;41.87;98616.34;4255724;33;19985;-84
2022/09/28 07:35:41;;;;;;;;;;;;;;;20.25;43.46;98621.37;4257843;33;20348;-85
2022/09/28 07:38:08;;;;;;;;;;;;;;;20.60;44.99;98619.00;4264790;33;19997;-85
2022/09/28 07:43:22;;;;;;;;;;;;;;;20.22;40.77;98613.63;4254198;33;19986;-84
2022/09/28 07:45:51;;;;;;;;;;;;;;;20.42;40.18;98618.00;4254343;33;20037;-84
2022/09/28 07:48:18;;;;;;;;;;;;;;;20.27;42.27;98616.91;4243975;33;870369;-85
2022/09/28 07:50:46;;;;;;;;;;;;;;;20.89;41.59;98626.44;4257478;33;19996;-85
2022/09/28 07:53:14;;;;;;;;;;;;;;;20.66;41.01;98630.09;4261029;33;19981;-84
2022/09/28 07:55:42;;;;;;;;;;;;;;;20.32;42.51;98630.69;4256861;33;19978;-84
2022/09/28 07:58:09;;;;;;;;;;;;;;;20.41;43.95;98629.44;4256334;33;19985;-84
2022/09/28 08:00:36;;;;;;;;;;;;;;;21.11;43.79;98635.97;4263145;33;20038;-84
2022/09/28 08:03:03;;;;;;;;;;;;;;;19.37;44.96;98650.31;4264755;33;19981;-83
2022/09/28 08:05:31;;;;;;;;;;;;;;;19.84;46.02;98634.47;4260629;33;20036;-83
2022/09/28 08:07:58;;;;;;;;;;;;;;;19.78;44.55;98639.97;4270228;33;20315;-83
2022/09/28 08:10:25;;;;;;;;;;;;;;;19.64;44.62;98637.06;4268400;33;19985;-83
2022/09/28 08:12:57;;;;;;;;;;;;;;;19.81;44.55;98629.31;4267498;33;20436;-84
2022/09/28 08:15:35;;;;;;;;;;;;;;;19.80;43.92;98622.37;4273967;33;19981;-82
2022/09/28 08:18:03;;;;;;;;;;;;;;;20.56;42.66;98612.19;4263901;33;20033;-82
2022/09/28 08:23:17;;;;;;;;;;;;;;;20.87;42.48;98599.37;4255191;33;20322;-82
2022/09/28 08:25:47;;;;;;;;;;;;;;;20.89;40.70;98594.88;4272815;33;20754;-84
2022/09/28 08:28:16;;;;;;;;;;;;;;;20.24;44.18;98590.75;4265828;33;20188;-83
2022/09/28 08:30:46;;;;;;;;;;;;;;;20.92;42.74;98593.03;4279257;33;20374;-85
2022/09/28 08:33:16;;;;;;;;;;;;;;;21.17;42.55;98598.87;4264031;33;19981;-85
2022/09/28 08:35:56;;;;;;;;;;;;;;;21.16;41.98;98607.69;4264717;33;19993;-85
2022/09/28 08:38:24;;;;;;;;;;;;;;;21.40;43.06;98607.47;4255120;33;20001;-86
2022/09/28 08:41:18;;;;;;;;;;;;;;;21.46;41.00;98622.97;4258383;33;20002;-87
2022/09/28 08:43:58;;;;;;;;;;;;;;;21.03;41.98;98627.59;4267521;33;19980;-84
2022/09/28 08:46:29;;;;;;;;;;;;;;;21.17;40.56;98625.19;4274895;33;20021;-85
2022/09/28 08:49:26;;;;;;;;;;;;;;;20.63;42.95;98626.75;4258849;33;19993;-83
2022/09/28 08:51:54;;;;;;;;;;;;;;;20.60;42.66;98624.28;4262011;33;19989;-84
2022/09/28 08:54:40;;;;;;;;;;;;;;;20.42;44.87;98634.66;4268298;33;19973;-85
2022/09/28 08:57:18;;;;;;;;;;;;;;;20.01;44.14;98630.31;4262317;33;19993;-84
2022/09/28 08:59:47;;;;;;;;;;;;;;;20.14;45.38;98619.22;4272279;33;20014;-84
2022/09/28 09:02:16;;;;;;;;;;;;;;;20.64;45.66;98624.09;4256238;33;20054;-83
2022/09/28 09:04:42;;;;;;;;;;;;;;;21.12;43.26;98617.50;4269914;33;19974;-84
2022/09/28 09:07:16;;;;;;;;;;;;;;;19.96;44.52;98610.31;4110422;33;5019253;-85
2022/09/28 09:09:51;;;;;;;;;;;;;;;20.50;43.92;98607.16;4256830;33;20042;-85
2022/09/28 09:12:28;;;;;;;;;;;;;;;20.63;44.49;98608.34;4269092;33;20059;-86
2022/09/28 09:14:55;;;;;;;;;;;;;;;20.62;45.18;98602.25;4256370;33;19978;-88
2022/09/28 09:17:28;;;;;;;;;;;;;;;20.72;42.97;98596.56;4259157;33;20351;-85
2022/09/28 09:19:55;;;;;;;;;;;;;;;20.44;45.22;98598.63;4265971;33;19987;-85
2022/09/28 09:22:35;;;;;;;;;;;;;;;20.80;43.96;98590.03;4255419;33;19989;-89
2022/09/28 09:25:24;;;;;;;;;;;;;;;20.94;42.18;98599.94;4260367;33;19993;-85
2022/09/28 09:28:12;;;;;;;;;;;;;;;20.83;42.40;98600.41;4239759;33;20304;-83
2022/09/28 09:30:51;;;;;;;;;;;;;;;20.83;43.95;98604.81;4260642;33;19981;-85
2022/09/28 09:33:37;;;;;;;;;;;;;;;20.73;43.94;98596.50;4264650;33;19982;-87
2022/09/28 09:36:17;;;;;;;;;;;;;;;20.31;43.76;98597.44;4268071;33;19993;-85
2022/09/28 09:38:49;;;;;;;;;;;;;;;20.62;42.40;98589.09;4253116;33;20048;-86
2022/09/28 09:41:28;;;;;;;;;;;;;;;20.63;42.01;98598.69;4264149;33;20379;-84
2022/09/28 09:43:58;;;;;;;;;;;;;;;19.90;43.08;98600.06;4272897;33;20012;-85
2022/09/28 09:46:34;;;;;;;;;;;;;;;20.95;44.37;98603.41;4264345;33;20456;-86
2022/09/28 09:49:05;;;;;;;;;;;;;;;20.61;45.18;98595.28;4256657;33;20315;-86
2022/09/28 09:51:43;;;;;;;;;;;;;;;20.98;45.17;98603.28;4258304;33;20007;-85
2022/09/28 09:54:13;;;;;;;;;;;;;;;20.42;43.49;98603.09;3974639;33;10000102;-87
2022/09/28 09:57:00;;;;;;;;;;;;;;;20.23;45.99;98599.56;4270742;33;20422;-83
2022/09/28 09:59:35;;;;;;;;;;;;;;;20.22;44.25;98592.59;4248241;33;19986;-83
2022/09/28 10:02:10;;;;;;;;;;;;;;;20.48;44.49;98595.84;4269270;33;20328;-86
2022/09/28 10:04:39;;;;;;;;;;;;;;;20.09;44.90;98594.03;4262534;33;19989;-88
2022/09/28 10:07:08;;;;;;;;;;;;;;;20.18;46.34;98596.28;4262943;33;19997;-87
2022/09/28 10:09:40;;;;;;;;;;;;;;;20.51;44.56;98608.88;4270863;33;20016;-86
2022/09/28 10:12:14;;;;;;;;;;;;;;;19.78;44.68;98603.19;4257316;33;20008;-87
2022/09/28 10:14:41;;;;;;;;;;;;;;;20.03;45.08;98602.19;4253390;33;20045;-86
2022/09/28 10:17:08;;;;;;;;;;;;;;;19.76;46.95;98605.06;4253334;33;20053;-86
2022/09/28 10:19:41;;;;;;;;;;;;;;;19.94;45.88;98606.91;4256356;33;20730;-87
2022/09/28 10:22:16;;;;;;;;;;;;;;;19.81;48.51;98603.06;4254238;33;20001;-88
2022/09/28 10:24:44;;;;;;;;;;;;;;;20.07;47.22;98609.00;4250765;33;20048;-88
2022/09/28 10:27:16;;;;;;;;;;;;;;;20.35;44.24;98599.00;4257473;33;19994;-86
2022/09/28 10:29:53;;;;;;;;;;;;;;;19.89;44.77;98601.00;4250294;33;19974;-86
2022/09/28 10:32:24;;;;;;;;;;;;;;;20.11;45.83;98600.09;4256679;33;19993;-87
2022/09/28 10:34:52;;;;;;;;;;;;;;;19.93;44.86;98610.44;4250187;33;19978;-88
2022/09/28 10:37:19;;;;;;;;;;;;;;;19.52;44.84;98602.44;4249950;33;19982;-88
2022/09/28 10:39:52;;;;;;;;;;;;;;;19.92;44.73;98606.13;4250143;33;20037;-88
2022/09/28 10:42:22;;;;;;;;;;;;;;;19.35;45.98;98604.91;4250018;33;20504;-87
2022/09/28 10:44:54;;;;;;;;;;;;;;;19.15;47.11;98610.09;4257290;33;19993;-85
2022/09/28 10:47:23;;;;;;;;;;;;;;;19.38;45.42;98599.53;4249169;33;19993;-84
2022/09/28 10:49:50;;;;;;;;;;;;;;;19.62;44.24;98602.97;4250294;33;20317;-85
2022/09/28 10:52:35;;;;;;;;;;;;;;;20.11;43.43;98602.72;4253407;33;20001;-84
2022/09/28 10:55:14;;;;;;;;;;;;;;;19.36;42.91;98601.34;4254744;33;19997;-85
2022/09/28 10:57:41;;;;;;;;;;;;;;;19.38;44.73;98604.78;4256474;33;20389;-83
2022/09/28 11:00:29;;;;;;;;;;;;;;;19.63;43.94;98598.56;4258518;33;20045;-83
2022/09/28 11:02:56;;;;;;;;;;;;;;;19.38;44.96;98583.78;4260099;33;20041;-86
2022/09/28 11:05:28;;;;;;;;;;;;;;;19.57;46.31;98588.31;4245592;33;20010;-85
2022/09/28 11:07:56;;;;;;;;;;;;;;;19.30;47.46;98591.09;4257529;33;19993;-83
2022/09/28 11:10:26;;;;;;;;;;;;;;;19.57;44.54;98575.19;4254296;33;20002;-83
2022/09/28 11:12:54;;;;;;;;;;;;;;;19.87;45.28;98584.44;4270445;33;19993;-85
2022/09/28 11:15:24;;;;;;;;;;;;;;;19.68;46.09;98573.00;4259069;33;20040;-84
2022/09/28 11:17:51;;;;;;;;;;;;;;;19.96;44.48;98564.81;4257051;33;19993;-83
2022/09/28 11:20:25;;;;;;;;;;;;;;;20.10;44.73;98572.09;4260468;33;19989;-83
2022/09/28 11:22:54;;;;;;;;;;;;;;;20.17;43.42;98557.78;4259879;33;20013;-84
2022/09/28 11:25:24;;;;;;;;;;;;;;;20.07;42.50;98567.84;3972884;33;5018906;-84
2022/09/28 11:27:51;;;;;;;;;;;;;;;20.33;41.90;98557.97;4248433;33;19986;-84
2022/09/28 11:30:25;;;;;;;;;;;;;;;19.90;42.82;98559.81;4257416;33;19986;-85
2022/09/28 11:32:55;;;;;;;;;;;;;;;20.03;45.90;98549.66;4258500;33;20072;-86
2022/09/28 11:35:35;;;;;;;;;;;;;;;20.51;43.99;98562.44;4274108;33;19996;-88
2022/09/28 11:38:05;;;;;;;;;;;;;;;20.11;42.72;98558.91;4274178;33;20334;-87
2022/09/28 11:40:46;;;;;;;;;;;;;;;20.14;43.64;98563.19;4273052;33;20036;-89
2022/09/28 11:43:16;;;;;;;;;;;;;;;20.37;43.29;98559.53;4269584;33;20005;-87
2022/09/28 11:45:46;;;;;;;;;;;;;;;19.87;43.88;98555.53;4266221;33;19985;-90
2022/09/28 11:48:14;;;;;;;;;;;;;;;20.36;43.98;98558.69;4261649;33;20352;-86
2022/09/28 11:50:49;;;;;;;;;;;;;;;20.54;42.48;98558.81;4263395;33;20383;-88
2022/09/28 11:53:19;;;;;;;;;;;;;;;20.60;42.05;98561.16;4258836;33;19997;-87
2022/09/28 11:55:46;;;;;;;;;;;;;;;20.41;41.91;98551.44;4260631;33;20003;-85
2022/09/28 11:58:16;;;;;;;;;;;;;;;20.28;44.48;98539.75;4270393;33;20945;-84
2022/09/28 12:00:45;;;;;;;;;;;;;;;20.86;41.98;98526.62;4268278;33;20032;-83
2022/09/28 12:03:14;;;;;;;;;;;;;;;20.55;42.01;98537.72;4284119;33;20012;-85
2022/09/28 12:05:45;;;;;;;;;;;;;;;20.15;42.43;98522.84;4272844;33;20335;-85
2022/09/28 12:08:13;;;;;;;;;;;;;;;20.02;42.91;98526.94;4286853;33;20323;-86
2022/09/28 12:10:46;;;;;;;;;;;;;;;20.44;41.91;98535.53;4274968;33;20056;-85
2022/09/28 12:13:21;;;;;;;;;;;;;;;20.12;42.00;98529.06;4283697;33;20001;-85
2022/09/28 12:15:55;;;;;;;;;;;;;;;20.42;41.51;98520.75;4281399;33;20045;-84
2022/09/28 12:18:42;;;;;;;;;;;;;;;20.23;42.41;98522.50;4267625;33;20052;-84
2022/09/28 12:21:16;;;;;;;;;;;;;;;19.82;42.89;98520.75;4266820;33;20478;-85
2022/09/28 12:23:44;;;;;;;;;;;;;;;20.41;41.79;98519.91;4276160;33;20005;-86
2022/09/28 12:26:23;;;;;;;;;;;;;;;20.20;41.74;98515.63;4284817;33;20061;-84
2022/09/28 12:28:51;;;;;;;;;;;;;;;20.07;43.02;98514.44;4272537;33;20027;-84
2022/09/28 12:31:24;;;;;;;;;;;;;;;20.03;42.47;98502.34;4284829;33;20393;-85
2022/09/28 12:33:51;;;;;;;;;;;;;;;20.01;43.75;98499.81;4286045;33;20001;-86
2022/09/28 12:36:17;;;;;;;;;;;;;;;20.14;44.24;98498.34;4274708;33;19996;-84
2022/09/28 12:39:05;;;;;;;;;;;;;;;20.53;43.59;98497.50;4274596;33;20323;-86
2022/09/28 12:42:11;;;;;;;;;;;;;;;20.58;42.76;98494.63;3828919;33;5008709;-88
2022/09/28 12:44:47;;;;;;;;;;;;;;;20.64;43.09;98510.13;4264960;33;20040;-87
2022/09/28 12:47:23;;;;;;;;;;;;;;;20.04;43.29;98493.53;4283842;33;20001;-87
2022/09/28 12:49:49;;;;;;;;;;;;;;;20.08;44.13;98495.12;4274053;33;20012;-85
2022/09/28 12:52:39;;;;;;;;;;;;;;;20.31;42.75;98494.97;4271098;33;20331;-85
2022/09/28 12:55:19;;;;;;;;;;;;;;;20.53;42.88;98497.50;4274388;33;20029;-86
2022/09/28 12:57:51;;;;;;;;;;;;;;;20.32;44.59;98488.75;4282892;33;20030;-84
2022/09/28 13:00:21;;;;;;;;;;;;;;;20.36;43.10;98485.09;4271866;33;19993;-85
2022/09/28 13:02:58;;;;;;;;;;;;;;;20.11;44.39;98484.50;4268983;33;20268;-86
2022/09/28 13:05:37;;;;;;;;;;;;;;;20.93;45.53;98489.50;4258463;33;20032;-84
2022/09/28 13:08:07;;;;;;;;;;;;;;;20.87;44.21;98481.00;4256449;33;20770;-87
2022/09/28 13:10:34;;;;;;;;;;;;;;;20.68;44.52;98480.16;4285468;33;19996;-85